Share

Aihui, Heilongjiang

Ignatyevo (UHBB) Elev 636 ft | 50.43 °N, 127.41 °E | Change Station

Current weather conditions updated 22 minutes ago

Overcast
Overcast
57 °F
Feels Like 57 °F
N
11
Wind Variable Wind from SSE
Sunrise 4:27 AM
Sunset 6:31 PM
Moon Waning Gibbous

Tomorrow is forecast to be Warmer than today.

Pressure 29.68 in
Visibility 6.2 miles
Clouds Few 3300 ft
Overcast 20000 ft
Dew Point 23 °F
Humidity 27%
Rainfall 0.00 in
Snow Depth Not available.
UV 0 out of 16
Pollen Not available.
Air Quality Not available.
Flu Activity Not available.
METAR UHBB 200830Z 16005MPS 9999 FEW033 OVC200 14/M05 Q1005 NOSIG RMK QFE739/0985 18090060

More Conditions Fewer Conditions

Pressure 29.68 in
Visibility 6.2 miles
Clouds Few 3300 ft
Overcast 20000 ft
Dew Point 23 °F
Humidity 27%
Rainfall 0.00 in
Snow Depth Not available.
UV 0 out of 16
Pollen Not available.
Air Quality Not available.
Flu Activity Not available.
METAR UHBB 200830Z 16005MPS 9999 FEW033 OVC200 14/M05 Q1005 NOSIG RMK QFE739/0985 18090060

More Conditions Fewer Conditions

10-Day Weather Forecast

Almanac

Astronomy

Apr. 20, 2014 Rise Set
Actual Time 4:27 AM CST 6:31 PM CST
Civil Twilight 3:52 AM CST 7:06 PM CST
Nautical Twilight 3:09 AM CST 7:50 PM CST
Astronomical Twilight 2:20 AM CST 8:40 PM CST
Moon 11:44 PM CST 7:56 AM CST
Length of Visible Light 15h 13m
Length of Day
14h 03m
Tomorrow will be 3m 35s longer.
Waning Gibbous, 72% of the Moon is Illuminated
Today
Waning Gibbous
Apr 22
Last Quarter
Apr 29
New
May 6
First Quarter
May 14
Full

Yesterday's Extremes

Country Highs Country Lows

Community

  • Sunny day at the coast-Cape Arago Lighthouse
    Sunny day at the coast-Cape Arago Lighthouse
  • Cherry Blossoms
    Cherry Blossoms
  • White-Crowned Sparrow
    White-Crowned Sparrow
  • New Day
    New Day
  • Happy Easter!
    Happy Easter!

WunderPhotos

Upload Photos

1,703,122 photos uploaded!

WunderBlogs® & News

Nearby

Snow Depth

Not available.

Coastal Water Temperatures

Place Temperature
No Stations Reporting

Earthquake Activity

City Distance Mag. Time & Date
No recent earthquake activity has been reported nearby.
Minimum magnitude displayed is 2.5.

Nearby Weather Stations

There are no personal weather stations in this area.

What do you think?

We're not finished. Please let us know what you like, what you don't like, and what you are still missing.